Time;durP1;ratioP1;P1;durP2;ratioP2;P2;SDS_P1;SDS_P2;PMS_P1;PMS_P2;Temp;Humidity;BMP_temperature;BMP_pressure;BME280_temperature;BME280_humidity;BME280_pressure;Samples;Min_cycle;Max_cycle;Signal;HPM_P1;HPM_P2
2024/04/18 00:02:06;;;;;;;6.32;3.08;;;;;;;;;;5397395;26;20000;-74
2024/04/18 00:04:31;;;;;;;4.82;2.42;;;;;;;;;;5394412;26;20024;-74
2024/04/18 00:07:01;;;;;;;6.05;2.53;;;;;;;;;;5387241;26;20001;-74
2024/04/18 00:09:26;;;;;;;4.57;2.20;;;;;;;;;;5398156;26;20516;-74
2024/04/18 00:11:51;;;;;;;5.68;2.28;;;;;;;;;;5405191;26;20070;-74
2024/04/18 00:14:16;;;;;;;6.45;2.65;;;;;;;;;;5389287;26;20074;-74
2024/04/18 00:16:42;;;;;;;6.68;2.50;;;;;;;;;;5383453;26;20014;-74
2024/04/18 00:19:16;;;;;;;3.92;1.85;;;;;;;;;;5382122;26;20023;-74
2024/04/18 00:21:57;;;;;;;7.03;2.40;;;;;;;;;;5400082;26;20019;-74
2024/04/18 00:24:26;;;;;;;4.18;1.73;;;;;;;;;;5395241;26;20003;-74
2024/04/18 00:26:51;;;;;;;3.65;1.52;;;;;;;;;;5392626;26;20465;-74
2024/04/18 00:29:16;;;;;;;2.90;1.52;;;;;;;;;;5390106;26;20015;-74
2024/04/18 00:31:41;;;;;;;3.65;1.73;;;;;;;;;;5395210;26;20356;-74
2024/04/18 00:34:07;;;;;;;5.80;1.75;;;;;;;;;;5398697;26;20019;-74
2024/04/18 00:36:43;;;;;;;4.18;1.65;;;;;;;;;;5398661;26;20476;-74
2024/04/18 00:39:21;;;;;;;3.50;1.60;;;;;;;;;;5404598;26;19996;-74
2024/04/18 00:41:57;;;;;;;3.83;1.67;;;;;;;;;;5400608;26;19996;-74
2024/04/18 00:44:28;;;;;;;4.13;1.52;;;;;;;;;;5394755;26;20038;-73
2024/04/18 00:47:10;;;;;;;4.50;1.50;;;;;;;;;;5395895;26;20075;-74
2024/04/18 00:49:35;;;;;;;3.05;1.55;;;;;;;;;;5397676;26;20012;-74
2024/04/18 00:52:00;;;;;;;3.72;1.80;;;;;;;;;;5396921;26;19989;-74
2024/04/18 00:54:26;;;;;;;4.93;1.88;;;;;;;;;;5390957;26;20040;-74
2024/04/18 00:56:57;;;;;;;2.85;1.50;;;;;;;;;;5384528;26;19996;-74
2024/04/18 00:59:25;;;;;;;4.45;1.60;;;;;;;;;;5383593;26;20000;-74
2024/04/18 01:02:10;;;;;;;3.30;1.60;;;;;;;;;;5395273;26;20004;-74
2024/04/18 01:04:36;;;;;;;2.72;1.10;;;;;;;;;;5402005;26;20013;-74
2024/04/18 01:07:11;;;;;;;4.45;1.70;;;;;;;;;;5390407;26;20004;-74
2024/04/18 01:09:44;;;;;;;4.75;1.45;;;;;;;;;;5389334;26;20007;-73
2024/04/18 01:12:10;;;;;;;4.38;1.40;;;;;;;;;;5398277;26;20004;-73
2024/04/18 01:14:35;;;;;;;2.45;1.15;;;;;;;;;;5380001;26;20004;-74
2024/04/18 01:17:04;;;;;;;2.10;1.10;;;;;;;;;;5385618;26;20038;-74
2024/04/18 01:19:29;;;;;;;3.08;1.33;;;;;;;;;;5396319;26;20003;-74
2024/04/18 01:21:55;;;;;;;4.38;1.52;;;;;;;;;;5403890;26;20004;-73
2024/04/18 01:24:20;;;;;;;3.70;1.48;;;;;;;;;;5387076;26;20004;-74
2024/04/18 01:26:45;;;;;;;3.60;1.25;;;;;;;;;;5381815;26;20048;-74
2024/04/18 01:29:11;;;;;;;3.95;1.58;;;;;;;;;;5379748;26;20003;-73
2024/04/18 01:31:56;;;;;;;3.65;1.40;;;;;;;;;;5397511;26;20012;-74
2024/04/18 01:34:21;;;;;;;3.47;1.40;;;;;;;;;;5400295;26;20766;-74
2024/04/18 01:36:48;;;;;;;4.13;1.00;;;;;;;;;;5385906;26;19992;-73
2024/04/18 01:39:26;;;;;;;3.35;1.35;;;;;;;;;;5390598;26;19996;-74
2024/04/18 01:42:02;;;;;;;3.72;1.75;;;;;;;;;;5396780;26;20008;-73
2024/04/18 01:44:46;;;;;;;2.70;1.25;;;;;;;;;;5405221;26;20011;-74
2024/04/18 01:47:30;;;;;;;3.67;1.38;;;;;;;;;;5388735;26;20018;-73
2024/04/18 01:50:05;;;;;;;2.83;1.25;;;;;;;;;;5386690;26;20098;-74
2024/04/18 01:52:30;;;;;;;3.50;1.40;;;;;;;;;;5392178;26;20457;-74
2024/04/18 01:55:01;;;;;;;2.72;1.00;;;;;;;;;;5402621;26;20000;-74
2024/04/18 01:57:34;;;;;;;2.55;1.42;;;;;;;;;;5403939;26;20027;-74
2024/04/18 02:00:18;;;;;;;2.85;1.40;;;;;;;;;;5393861;26;20014;-74
2024/04/18 02:02:43;;;;;;;5.93;2.35;;;;;;;;;;5399974;26;20003;-74
2024/04/18 02:05:09;;;;;;;4.25;1.50;;;;;;;;;;5387492;26;19996;-74
2024/04/18 02:07:43;;;;;;;3.22;1.70;;;;;;;;;;5382154;26;20019;-74
2024/04/18 02:10:08;;;;;;;4.07;1.40;;;;;;;;;;5380250;26;20344;-74
2024/04/18 02:12:56;;;;;;;3.20;1.42;;;;;;;;;;5396741;26;20354;-74
2024/04/18 02:15:42;;;;;;;3.88;1.50;;;;;;;;;;5398731;26;20078;-74
2024/04/18 02:18:13;;;;;;;3.03;1.35;;;;;;;;;;5389229;26;20011;-73
2024/04/18 02:20:41;;;;;;;2.97;1.17;;;;;;;;;;5395916;26;20020;-74
2024/04/18 02:23:18;;;;;;;2.75;1.20;;;;;;;;;;5397841;26;20343;-74
2024/04/18 02:25:51;;;;;;;3.25;1.08;;;;;;;;;;5384662;26;20003;-74
2024/04/18 02:28:17;;;;;;;2.75;1.40;;;;;;;;;;5392546;26;20076;-74
2024/04/18 02:30:42;;;;;;;2.70;1.13;;;;;;;;;;5393995;26;20047;-74
2024/04/18 02:33:13;;;;;;;3.53;1.98;;;;;;;;;;5392775;26;20001;-74
2024/04/18 02:35:47;;;;;;;4.38;1.30;;;;;;;;;;5381102;26;20000;-74
2024/04/18 02:38:31;;;;;;;2.67;1.15;;;;;;;;;;5385552;26;20036;-74
2024/04/18 02:41:06;;;;;;;2.65;1.35;;;;;;;;;;5393417;26;20000;-74
2024/04/18 02:43:48;;;;;;;3.90;1.42;;;;;;;;;;5388503;26;20015;-74
2024/04/18 02:46:13;;;;;;;2.42;1.25;;;;;;;;;;5387073;26;20019;-74
2024/04/18 02:48:38;;;;;;;3.42;1.20;;;;;;;;;;5390394;26;20004;-74
2024/04/18 02:51:22;;;;;;;2.90;1.20;;;;;;;;;;5388840;26;20077;-74
2024/04/18 02:54:07;;;;;;;2.63;1.10;;;;;;;;;;5385510;26;20028;-74
2024/04/18 02:56:32;;;;;;;2.25;1.10;;;;;;;;;;5397135;26;19996;-74
2024/04/18 02:59:07;;;;;;;3.40;1.50;;;;;;;;;;5389877;26;20074;-74
2024/04/18 03:01:46;;;;;;;2.60;1.15;;;;;;;;;;5390564;26;20480;-74
2024/04/18 03:04:11;;;;;;;4.53;1.73;;;;;;;;;;5402179;26;20053;-73
2024/04/18 03:06:36;;;;;;;4.00;1.50;;;;;;;;;;5393914;26;20007;-74
2024/04/18 03:09:05;;;;;;;2.45;1.40;;;;;;;;;;5378747;26;20011;-74
2024/04/18 03:11:50;;;;;;;2.45;1.00;;;;;;;;;;5406296;26;20008;-74
2024/04/18 03:14:16;;;;;;;3.20;1.20;;;;;;;;;;5390473;26;20011;-73
2024/04/18 03:16:41;;;;;;;4.53;1.63;;;;;;;;;;5392823;26;20024;-73
2024/04/18 03:19:18;;;;;;;3.13;1.35;;;;;;;;;;5383978;26;20467;-74
2024/04/18 03:21:53;;;;;;;4.40;1.63;;;;;;;;;;5398797;26;20004;-74
2024/04/18 03:24:19;;;;;;;3.08;1.30;;;;;;;;;;5394474;26;20433;-74
2024/04/18 03:26:44;;;;;;;2.83;1.33;;;;;;;;;;5390853;26;20051;-76
2024/04/18 03:29:10;;;;;;;4.65;1.42;;;;;;;;;;5387852;26;20044;-74
2024/04/18 03:31:55;;;;;;;2.65;1.25;;;;;;;;;;5387564;26;20000;-74
2024/04/18 03:34:40;;;;;;;3.13;1.45;;;;;;;;;;5386638;26;20000;-73
2024/04/18 03:37:05;;;;;;;3.63;1.70;;;;;;;;;;5393141;26;20041;-74
2024/04/18 03:39:30;;;;;;;2.65;1.38;;;;;;;;;;5395384;26;19995;-74
2024/04/18 03:41:56;;;;;;;3.75;1.50;;;;;;;;;;5390946;26;20000;-74
2024/04/18 03:44:21;;;;;;;3.40;1.40;;;;;;;;;;5388477;26;20011;-74
2024/04/18 03:46:46;;;;;;;3.92;1.90;;;;;;;;;;5382202;26;20035;-74
2024/04/18 03:49:31;;;;;;;3.70;1.58;;;;;;;;;;5402174;26;20000;-74
2024/04/18 03:51:56;;;;;;;4.32;1.38;;;;;;;;;;5406924;26;20011;-74
2024/04/18 03:54:33;;;;;;;3.85;1.85;;;;;;;;;;5399165;26;20004;-73
2024/04/18 03:57:01;;;;;;;4.03;1.75;;;;;;;;;;5395481;26;20053;-74
2024/04/18 03:59:26;;;;;;;5.00;2.15;;;;;;;;;;5392203;26;20451;-74
2024/04/18 04:01:51;;;;;;;4.28;2.00;;;;;;;;;;5384364;26;20340;-73
2024/04/18 04:04:16;;;;;;;3.78;2.00;;;;;;;;;;5402504;26;19996;-74
2024/04/18 04:06:42;;;;;;;5.00;2.00;;;;;;;;;;5392636;26;20076;-74
2024/04/18 04:09:07;;;;;;;6.40;2.08;;;;;;;;;;5388469;26;20073;-74
2024/04/18 04:11:32;;;;;;;4.07;1.88;;;;;;;;;;5395055;26;19995;-74
2024/04/18 04:13:57;;;;;;;4.85;2.13;;;;;;;;;;5388989;26;19996;-74
2024/04/18 04:16:30;;;;;;;3.75;1.77;;;;;;;;;;5404136;26;19991;-74
2024/04/18 04:19:14;;;;;;;4.88;2.35;;;;;;;;;;5393684;26;20553;-74
2024/04/18 04:21:48;;;;;;;4.07;2.00;;;;;;;;;;5392371;26;20048;-74
2024/04/18 04:24:13;;;;;;;6.47;3.30;;;;;;;;;;5388250;26;20457;-74
2024/04/18 04:26:48;;;;;;;5.78;1.88;;;;;;;;;;5383883;26;20098;-74
2024/04/18 04:29:13;;;;;;;23.75;13.32;;;;;;;;;;5381793;26;20000;-74
2024/04/18 04:31:39;;;;;;;10.95;5.88;;;;;;;;;;5400235;26;20452;-74
2024/04/18 04:34:05;;;;;;;11.20;4.68;;;;;;;;;;5397299;26;20001;-74
2024/04/18 04:36:30;;;;;;;18.30;10.38;;;;;;;;;;5400342;26;20007;-74
2024/04/18 04:38:56;;;;;;;7.72;4.50;;;;;;;;;;5412987;26;20048;-74
2024/04/18 04:41:33;;;;;;;7.68;4.15;;;;;;;;;;5400388;26;19996;-74
2024/04/18 04:43:58;;;;;;;7.55;3.67;;;;;;;;;;5388509;26;20002;-74
2024/04/18 04:46:23;;;;;;;5.68;2.90;;;;;;;;;;5400574;26;20081;-74
2024/04/18 04:48:48;;;;;;;6.20;3.50;;;;;;;;;;5396893;26;20032;-74
2024/04/18 04:51:14;;;;;;;7.05;3.65;;;;;;;;;;5390379;26;20004;-74
2024/04/18 04:53:39;;;;;;;5.43;3.00;;;;;;;;;;5393139;26;20000;-74
2024/04/18 04:56:04;;;;;;;6.72;3.42;;;;;;;;;;5398543;26;20072;-74
2024/04/18 04:58:30;;;;;;;4.60;2.50;;;;;;;;;;5386441;26;20090;-74
2024/04/18 05:00:56;;;;;;;6.57;2.60;;;;;;;;;;5399348;26;20000;-74
2024/04/18 05:03:37;;;;;;;5.47;2.80;;;;;;;;;;5402076;26;20464;-74
2024/04/18 05:06:21;;;;;;;5.82;3.72;;;;;;;;;;5387885;26;20510;-74
2024/04/18 05:09:05;;;;;;;20.77;12.27;;;;;;;;;;5381529;26;20015;-74
2024/04/18 05:11:31;;;;;;;10.18;5.72;;;;;;;;;;5382006;26;20004;-74
2024/04/18 05:13:56;;;;;;;7.28;4.25;;;;;;;;;;5398905;26;20008;-74
2024/04/18 05:16:21;;;;;;;8.27;3.58;;;;;;;;;;5390738;26;20016;-74
2024/04/18 05:19:06;;;;;;;6.28;3.45;;;;;;;;;;5388323;26;20008;-74
2024/04/18 05:21:31;;;;;;;8.77;5.25;;;;;;;;;;5380459;26;19996;-74
2024/04/18 05:24:15;;;;;;;7.03;3.60;;;;;;;;;;5391968;26;20018;-74
2024/04/18 05:26:41;;;;;;;5.95;3.25;;;;;;;;;;5392069;26;19996;-74
2024/04/18 05:31:50;;;;;;;7.10;4.05;;;;;;;;;;5395373;26;20004;-74
2024/04/18 05:34:15;;;;;;;7.25;4.47;;;;;;;;;;5397595;26;20024;-74
2024/04/18 05:36:41;;;;;;;5.43;3.65;;;;;;;;;;5393523;26;20012;-74
2024/04/18 05:39:06;;;;;;;5.85;3.90;;;;;;;;;;5380095;26;20457;-74
2024/04/18 05:41:32;;;;;;;7.47;3.63;;;;;;;;;;5396616;26;19992;-74
2024/04/18 05:43:57;;;;;;;5.43;3.35;;;;;;;;;;5388605;26;20000;-74
2024/04/18 05:46:23;;;;;;;6.38;4.07;;;;;;;;;;5390043;26;20035;-74
2024/04/18 05:48:48;;;;;;;8.00;4.10;;;;;;;;;;5390944;26;20001;-75
2024/04/18 05:51:14;;;;;;;8.15;3.72;;;;;;;;;;5390600;26;20012;-74
2024/04/18 05:53:51;;;;;;;5.13;3.40;;;;;;;;;;5395757;26;19996;-74
2024/04/18 05:56:27;;;;;;;7.32;3.38;;;;;;;;;;5395765;26;20016;-74
2024/04/18 05:58:52;;;;;;;14.90;4.85;;;;;;;;;;5398349;26;20453;-75
2024/04/18 06:01:17;;;;;;;6.15;3.67;;;;;;;;;;5390359;26;20084;-75
2024/04/18 06:03:42;;;;;;;7.43;4.00;;;;;;;;;;5401274;26;20081;-74
2024/04/18 06:06:07;;;;;;;6.57;3.55;;;;;;;;;;5380498;26;20004;-74
2024/04/18 06:08:45;;;;;;;7.28;3.40;;;;;;;;;;5387777;26;20015;-74
2024/04/18 06:11:10;;;;;;;6.38;3.58;;;;;;;;;;5389695;26;20001;-74
2024/04/18 06:13:38;;;;;;;6.72;3.53;;;;;;;;;;5397853;26;19999;-74
2024/04/18 06:16:04;;;;;;;5.40;3.22;;;;;;;;;;5396387;26;20480;-75
2024/04/18 06:18:47;;;;;;;6.13;3.47;;;;;;;;;;5386974;26;20036;-75
2024/04/18 06:21:12;;;;;;;6.05;3.80;;;;;;;;;;5399402;26;20000;-75
2024/04/18 06:23:38;;;;;;;5.45;3.10;;;;;;;;;;5402648;26;20072;-74
2024/04/18 06:26:15;;;;;;;6.13;3.40;;;;;;;;;;5389632;26;20000;-75
2024/04/18 06:28:40;;;;;;;5.68;2.90;;;;;;;;;;5388417;26;20010;-74
2024/04/18 06:31:06;;;;;;;5.90;2.50;;;;;;;;;;5393359;26;20011;-74
2024/04/18 06:33:32;;;;;;;3.95;1.60;;;;;;;;;;5399537;26;20072;-74
2024/04/18 06:35:58;;;;;;;5.18;1.73;;;;;;;;;;5387436;26;20014;-75
2024/04/18 06:38:23;;;;;;;4.20;2.22;;;;;;;;;;5396520;26;20020;-75
2024/04/18 06:40:49;;;;;;;4.03;1.75;;;;;;;;;;5391906;26;20018;-74
2024/04/18 06:43:14;;;;;;;3.45;1.83;;;;;;;;;;5408412;26;19995;-74
2024/04/18 06:45:39;;;;;;;4.72;2.05;;;;;;;;;;5382954;26;20032;-75
2024/04/18 06:48:06;;;;;;;5.38;2.15;;;;;;;;;;5388343;26;20000;-74
2024/04/18 06:50:31;;;;;;;5.35;2.20;;;;;;;;;;5390236;26;20019;-74
2024/04/18 06:52:56;;;;;;;5.18;2.38;;;;;;;;;;5396608;26;20003;-74
2024/04/18 06:55:22;;;;;;;4.70;2.83;;;;;;;;;;5389151;26;19996;-75
2024/04/18 06:57:47;;;;;;;3.92;2.20;;;;;;;;;;5391091;26;20631;-75
2024/04/18 07:00:13;;;;;;;6.80;2.53;;;;;;;;;;5392538;26;20681;-74
2024/04/18 07:02:39;;;;;;;5.32;2.70;;;;;;;;;;5401919;26;20364;-75
2024/04/18 07:05:22;;;;;;;6.20;2.50;;;;;;;;;;5396382;26;20015;-75
2024/04/18 07:07:50;;;;;;;4.55;2.00;;;;;;;;;;5393195;26;20019;-74
2024/04/18 07:10:31;;;;;;;5.35;2.95;;;;;;;;;;5395002;26;19995;-74
2024/04/18 07:12:56;;;;;;;4.25;2.10;;;;;;;;;;5399516;26;20520;-75
2024/04/18 07:15:22;;;;;;;3.97;1.95;;;;;;;;;;5383608;26;20012;-74
2024/04/18 07:18:07;;;;;;;3.58;1.70;;;;;;;;;;5387224;26;20004;-75
2024/04/18 07:20:32;;;;;;;4.80;2.30;;;;;;;;;;5397397;26;20075;-75
2024/04/18 07:23:03;;;;;;;3.42;1.70;;;;;;;;;;5396298;26;20000;-74
2024/04/18 07:25:29;;;;;;;3.25;1.30;;;;;;;;;;5389218;26;22354;-75
2024/04/18 07:27:54;;;;;;;3.13;1.50;;;;;;;;;;5389088;26;19996;-75
2024/04/18 07:30:19;;;;;;;3.28;1.83;;;;;;;;;;5385359;26;19996;-75
2024/04/18 07:32:47;;;;;;;4.45;1.77;;;;;;;;;;5399218;26;20004;-75
2024/04/18 07:35:13;;;;;;;3.58;1.40;;;;;;;;;;5393128;26;20019;-75
2024/04/18 07:37:41;;;;;;;4.00;1.67;;;;;;;;;;5391061;26;20004;-75
2024/04/18 07:40:15;;;;;;;4.45;1.80;;;;;;;;;;5389569;26;19996;-75
2024/04/18 07:42:40;;;;;;;5.35;1.70;;;;;;;;;;5402004;26;20465;-75
2024/04/18 07:45:05;;;;;;;3.70;1.73;;;;;;;;;;5380417;26;20000;-75
2024/04/18 07:47:30;;;;;;;4.40;1.65;;;;;;;;;;5397901;26;19999;-75
2024/04/18 07:49:56;;;;;;;3.88;2.30;;;;;;;;;;5391767;26;20012;-75
2024/04/18 07:52:21;;;;;;;3.85;2.03;;;;;;;;;;5397023;26;20041;-75
2024/04/18 07:54:46;;;;;;;5.18;2.05;;;;;;;;;;5391606;26;20000;-75
2024/04/18 07:57:11;;;;;;;6.30;1.95;;;;;;;;;;5396854;26;20000;-75
2024/04/18 07:59:37;;;;;;;6.55;2.08;;;;;;;;;;5402826;26;20003;-75
2024/04/18 08:02:02;;;;;;;3.13;1.48;;;;;;;;;;5397925;26;20495;-75
2024/04/18 08:04:27;;;;;;;1.95;0.93;;;;;;;;;;5388728;26;20073;-75
2024/04/18 08:06:52;;;;;;;2.47;1.25;;;;;;;;;;5397893;26;20018;-75
2024/04/18 08:09:17;;;;;;;3.00;1.30;;;;;;;;;;5398609;26;20078;-75
2024/04/18 08:11:43;;;;;;;3.85;1.27;;;;;;;;;;5393457;26;20004;-75
2024/04/18 08:14:08;;;;;;;3.65;1.30;;;;;;;;;;5391147;26;20472;-75
2024/04/18 08:16:33;;;;;;;3.60;1.30;;;;;;;;;;5393420;26;20027;-75
2024/04/18 08:18:58;;;;;;;3.10;1.27;;;;;;;;;;5392611;26;20776;-74
2024/04/18 08:21:23;;;;;;;2.65;1.27;;;;;;;;;;5393253;26;20005;-75
2024/04/18 08:23:51;;;;;;;2.40;1.15;;;;;;;;;;5392761;26;20074;-75
2024/04/18 08:26:17;;;;;;;3.80;1.45;;;;;;;;;;5378509;26;20078;-75
2024/04/18 08:28:42;;;;;;;4.45;1.70;;;;;;;;;;5391735;26;19999;-75
2024/04/18 08:31:07;;;;;;;2.25;0.90;;;;;;;;;;5399639;26;20077;-75
2024/04/18 08:33:33;;;;;;;2.00;1.10;;;;;;;;;;5398336;26;20356;-75
2024/04/18 08:35:58;;;;;;;2.58;1.10;;;;;;;;;;5384483;26;20006;-75
2024/04/18 08:38:23;;;;;;;1.98;0.80;;;;;;;;;;5383581;26;20015;-75
2024/04/18 08:40:50;;;;;;;2.38;0.93;;;;;;;;;;5380186;26;20010;-75
2024/04/18 08:43:15;;;;;;;2.80;1.20;;;;;;;;;;5399948;26;20000;-75
2024/04/18 08:45:42;;;;;;;2.38;1.10;;;;;;;;;;5399264;26;20010;-75
2024/04/18 08:48:09;;;;;;;2.22;0.98;;;;;;;;;;5397743;26;20352;-75
2024/04/18 08:50:35;;;;;;;2.28;0.90;;;;;;;;;;5386079;26;19996;-75
2024/04/18 08:53:01;;;;;;;2.67;1.10;;;;;;;;;;5396652;26;20014;-75
2024/04/18 08:55:27;;;;;;;2.30;0.88;;;;;;;;;;5394780;26;20016;-75
2024/04/18 08:57:57;;;;;;;2.25;1.00;;;;;;;;;;5392998;26;20035;-76
2024/04/18 09:00:25;;;;;;;2.95;1.40;;;;;;;;;;5391482;26;20081;-75
2024/04/18 09:02:51;;;;;;;3.92;0.90;;;;;;;;;;5402784;26;20004;-76
2024/04/18 09:05:16;;;;;;;2.13;1.10;;;;;;;;;;5383880;26;20001;-76
2024/04/18 09:07:41;;;;;;;1.88;0.90;;;;;;;;;;5392637;26;20452;-75
2024/04/18 09:10:07;;;;;;;3.80;0.98;;;;;;;;;;5392195;26;20078;-75
2024/04/18 09:12:33;;;;;;;1.98;0.90;;;;;;;;;;5401417;26;20003;-75
2024/04/18 09:14:58;;;;;;;2.28;1.05;;;;;;;;;;5386428;26;20014;-75
2024/04/18 09:17:23;;;;;;;1.52;0.70;;;;;;;;;;5386877;26;20000;-75
2024/04/18 09:19:49;;;;;;;2.63;0.90;;;;;;;;;;5390707;26;20710;-76
2024/04/18 09:22:14;;;;;;;2.00;0.98;;;;;;;;;;5389801;26;19991;-76
2024/04/18 09:24:44;;;;;;;1.52;0.70;;;;;;;;;;5397084;26;20382;-76
2024/04/18 09:27:10;;;;;;;2.67;0.68;;;;;;;;;;5388870;26;20077;-75
2024/04/18 09:29:35;;;;;;;2.95;0.70;;;;;;;;;;5389827;26;20422;-75
2024/04/18 09:32:01;;;;;;;1.10;0.68;;;;;;;;;;5394813;26;20068;-76
2024/04/18 09:34:29;;;;;;;2.72;0.98;;;;;;;;;;5391243;26;20004;-75
2024/04/18 09:36:54;;;;;;;6.80;3.58;;;;;;;;;;5385140;26;19999;-75
2024/04/18 09:39:25;;;;;;;1.42;0.60;;;;;;;;;;5404502;26;20000;-76
2024/04/18 09:41:53;;;;;;;1.77;0.63;;;;;;;;;;5401154;26;20360;-76
2024/04/18 09:44:20;;;;;;;1.30;0.68;;;;;;;;;;5400105;26;20039;-76
2024/04/18 09:46:46;;;;;;;0.80;0.40;;;;;;;;;;5407769;26;20064;-76
2024/04/18 09:49:11;;;;;;;1.42;0.55;;;;;;;;;;5388427;26;20016;-75
2024/04/18 09:51:37;;;;;;;3.17;0.70;;;;;;;;;;5405451;26;20000;-75
2024/04/18 09:54:03;;;;;;;3.08;0.50;;;;;;;;;;5410014;26;20010;-76
2024/04/18 09:56:28;;;;;;;0.77;0.50;;;;;;;;;;5384478;26;20008;-76
2024/04/18 09:58:55;;;;;;;2.38;0.60;;;;;;;;;;5401365;26;20048;-75
2024/04/18 10:01:21;;;;;;;1.70;0.70;;;;;;;;;;5392086;26;20000;-76
2024/04/18 10:03:46;;;;;;;2.53;0.63;;;;;;;;;;5389735;26;20018;-75
2024/04/18 10:06:13;;;;;;;1.83;0.60;;;;;;;;;;5397841;26;19996;-76
2024/04/18 10:08:40;;;;;;;1.65;0.57;;;;;;;;;;5394534;26;20011;-76
2024/04/18 10:11:05;;;;;;;1.80;0.60;;;;;;;;;;5385526;26;20461;-76
2024/04/18 10:13:31;;;;;;;1.73;0.70;;;;;;;;;;5394420;26;20016;-76
2024/04/18 10:16:09;;;;;;;1.77;0.70;;;;;;;;;;5391176;26;20344;-76
2024/04/18 10:18:35;;;;;;;2.08;0.80;;;;;;;;;;5389507;26;19999;-76
2024/04/18 10:21:05;;;;;;;1.42;0.73;;;;;;;;;;5395981;26;20069;-75
2024/04/18 10:23:32;;;;;;;1.58;0.80;;;;;;;;;;5409193;26;19999;-75
2024/04/18 10:25:57;;;;;;;1.35;0.70;;;;;;;;;;5409693;26;20471;-75
2024/04/18 10:28:25;;;;;;;1.80;0.80;;;;;;;;;;5411677;26;20068;-75
2024/04/18 10:30:50;;;;;;;1.27;0.60;;;;;;;;;;5410528;26;19996;-75
2024/04/18 10:33:15;;;;;;;1.45;0.70;;;;;;;;;;5409507;26;20537;-75
2024/04/18 10:35:41;;;;;;;1.77;0.60;;;;;;;;;;5408157;26;20444;-76
2024/04/18 10:38:06;;;;;;;1.40;0.70;;;;;;;;;;5410864;26;20011;-75
2024/04/18 10:40:34;;;;;;;1.25;0.60;;;;;;;;;;5411537;26;20011;-75
2024/04/18 10:43:12;;;;;;;1.90;0.68;;;;;;;;;;5403938;26;20027;-75
2024/04/18 10:45:37;;;;;;;2.55;0.57;;;;;;;;;;5401321;26;20030;-75
2024/04/18 10:48:02;;;;;;;2.35;0.82;;;;;;;;;;5405376;26;20001;-75
2024/04/18 10:50:29;;;;;;;1.20;0.50;;;;;;;;;;5390613;26;20016;-76
2024/04/18 10:52:54;;;;;;;1.60;0.70;;;;;;;;;;5393497;26;20004;-76
2024/04/18 10:55:21;;;;;;;1.42;0.68;;;;;;;;;;5395982;26;20354;-75
2024/04/18 10:57:48;;;;;;;2.00;0.60;;;;;;;;;;5379366;26;20019;-76
2024/04/18 11:00:16;;;;;;;2.55;0.70;;;;;;;;;;5377411;26;20423;-76
2024/04/18 11:02:41;;;;;;;1.15;0.60;;;;;;;;;;5396234;26;20405;-76
2024/04/18 11:05:08;;;;;;;3.55;0.82;;;;;;;;;;5391755;26;20008;-76
2024/04/18 11:07:47;;;;;;;1.58;0.50;;;;;;;;;;5390509;26;20015;-76
2024/04/18 11:10:12;;;;;;;1.85;0.70;;;;;;;;;;5393441;26;20004;-75
2024/04/18 11:12:38;;;;;;;3.20;0.70;;;;;;;;;;5386930;26;20019;-76
2024/04/18 11:15:04;;;;;;;3.03;1.27;;;;;;;;;;5391121;26;20020;-75
2024/04/18 11:17:29;;;;;;;2.17;0.70;;;;;;;;;;5396713;26;20106;-75
2024/04/18 11:19:56;;;;;;;3.60;0.90;;;;;;;;;;5397805;26;20419;-76
2024/04/18 11:22:22;;;;;;;1.92;0.70;;;;;;;;;;5395616;26;20076;-75
2024/04/18 11:24:47;;;;;;;3.28;0.70;;;;;;;;;;5383475;26;20434;-76
2024/04/18 11:27:12;;;;;;;2.42;1.10;;;;;;;;;;5393827;26;20468;-76
2024/04/18 11:29:37;;;;;;;2.70;0.90;;;;;;;;;;5398480;26;20505;-76
2024/04/18 11:32:12;;;;;;;1.70;0.80;;;;;;;;;;5397715;26;20011;-75
2024/04/18 11:34:42;;;;;;;1.15;0.50;;;;;;;;;;5405956;26;20010;-76
2024/04/18 11:37:07;;;;;;;1.40;0.65;;;;;;;;;;5385283;26;20000;-76
2024/04/18 11:39:33;;;;;;;3.80;0.90;;;;;;;;;;5385405;26;20052;-76
2024/04/18 11:41:58;;;;;;;3.30;0.80;;;;;;;;;;5405356;26;20077;-76
2024/04/18 11:44:23;;;;;;;1.67;0.75;;;;;;;;;;5397966;26;20004;-76
2024/04/18 11:46:50;;;;;;;1.92;0.65;;;;;;;;;;5391693;26;20008;-76
2024/04/18 11:49:15;;;;;;;2.17;0.90;;;;;;;;;;5387461;26;19997;-76
2024/04/18 11:51:41;;;;;;;2.97;1.23;;;;;;;;;;5391416;26;20834;-75
2024/04/18 11:54:06;;;;;;;2.40;0.70;;;;;;;;;;5397176;26;20452;-76
2024/04/18 11:56:34;;;;;;;2.25;0.63;;;;;;;;;;5388877;26;20004;-76
2024/04/18 11:59:00;;;;;;;2.53;1.02;;;;;;;;;;5402591;26;20019;-76
2024/04/18 12:01:30;;;;;;;2.33;0.90;;;;;;;;;;5388946;26;20008;-75
2024/04/18 12:04:16;;;;;;;3.28;1.05;;;;;;;;;;5394525;26;20015;-76
2024/04/18 12:06:41;;;;;;;2.17;1.10;;;;;;;;;;5384272;26;19996;-75
2024/04/18 12:09:25;;;;;;;2.60;1.00;;;;;;;;;;5383090;26;20011;-76
2024/04/18 12:11:50;;;;;;;3.28;0.80;;;;;;;;;;5396099;26;20065;-76
2024/04/18 12:14:15;;;;;;;1.65;0.77;;;;;;;;;;5395621;26;20038;-76
2024/04/18 12:16:53;;;;;;;1.77;0.90;;;;;;;;;;5393608;26;20081;-76
2024/04/18 12:19:18;;;;;;;1.67;0.65;;;;;;;;;;5385529;26;20008;-76
2024/04/18 12:21:43;;;;;;;2.10;0.88;;;;;;;;;;5392755;26;20000;-76
2024/04/18 12:24:08;;;;;;;2.50;0.73;;;;;;;;;;5392409;26;20011;-76
2024/04/18 12:26:35;;;;;;;2.28;0.70;;;;;;;;;;5394864;26;20015;-76
2024/04/18 12:29:01;;;;;;;3.60;0.65;;;;;;;;;;5388509;26;19997;-76
2024/04/18 12:31:26;;;;;;;1.10;0.70;;;;;;;;;;5388413;26;20015;-76
2024/04/18 12:33:51;;;;;;;1.65;0.90;;;;;;;;;;5393682;26;20004;-76
2024/04/18 12:36:17;;;;;;;2.42;1.08;;;;;;;;;;5380792;26;20107;-76
2024/04/18 12:38:44;;;;;;;3.65;0.80;;;;;;;;;;5392218;26;20076;-76
2024/04/18 12:41:10;;;;;;;1.65;0.70;;;;;;;;;;5389740;26;20484;-76
2024/04/18 12:43:35;;;;;;;2.25;0.80;;;;;;;;;;5397016;26;20079;-76
2024/04/18 12:46:00;;;;;;;1.42;0.70;;;;;;;;;;5384304;26;20072;-76
2024/04/18 12:48:44;;;;;;;2.28;0.70;;;;;;;;;;5394105;26;20011;-76
2024/04/18 12:51:09;;;;;;;2.50;0.80;;;;;;;;;;5390125;26;20549;-76
2024/04/18 12:53:40;;;;;;;1.77;0.70;;;;;;;;;;5402400;26;20004;-76
2024/04/18 12:56:05;;;;;;;1.42;0.47;;;;;;;;;;5390437;26;20392;-76
2024/04/18 12:58:31;;;;;;;3.08;0.88;;;;;;;;;;5389553;26;20457;-76
2024/04/18 13:01:05;;;;;;;1.50;0.70;;;;;;;;;;5381762;26;20008;-76
2024/04/18 13:03:36;;;;;;;2.15;0.52;;;;;;;;;;5397252;26;20033;-76
2024/04/18 13:06:22;;;;;;;2.47;1.45;;;;;;;;;;5386981;26;19996;-76
2024/04/18 13:08:47;;;;;;;2.08;0.90;;;;;;;;;;5398416;26;19999;-76
2024/04/18 13:11:32;;;;;;;1.98;0.70;;;;;;;;;;5389638;26;20077;-76
2024/04/18 13:14:04;;;;;;;2.43;1.10;;;;;;;;;;5390144;26;20000;-76
2024/04/18 13:16:33;;;;;;;1.60;0.70;;;;;;;;;;5390295;26;20014;-76
2024/04/18 13:19:07;;;;;;;1.45;0.80;;;;;;;;;;5383365;26;20449;-75
2024/04/18 13:21:35;;;;;;;1.45;0.60;;;;;;;;;;5398617;26;20424;-75
2024/04/18 13:24:01;;;;;;;2.08;1.00;;;;;;;;;;5397577;26;20003;-76
2024/04/18 13:26:26;;;;;;;1.70;0.63;;;;;;;;;;5388270;26;20054;-75
2024/04/18 13:28:51;;;;;;;2.83;0.90;;;;;;;;;;5399885;26;20375;-76
2024/04/18 13:31:17;;;;;;;3.65;0.90;;;;;;;;;;5386789;26;19996;-76
2024/04/18 13:33:50;;;;;;;2.70;1.35;;;;;;;;;;5398936;26;20329;-76
2024/04/18 13:36:16;;;;;;;2.45;1.20;;;;;;;;;;5389694;26;20011;-75
2024/04/18 13:38:54;;;;;;;2.30;1.20;;;;;;;;;;5392501;26;20019;-76
2024/04/18 13:41:30;;;;;;;1.75;0.60;;;;;;;;;;5387175;26;20004;-76
2024/04/18 13:43:58;;;;;;;1.92;0.88;;;;;;;;;;5385172;26;20501;-76
2024/04/18 13:46:38;;;;;;;3.22;0.80;;;;;;;;;;5384516;26;20015;-76
2024/04/18 13:49:04;;;;;;;2.00;0.65;;;;;;;;;;5392044;26;20007;-76
2024/04/18 13:51:29;;;;;;;2.28;1.08;;;;;;;;;;5403494;26;19996;-76
2024/04/18 13:53:56;;;;;;;2.53;1.10;;;;;;;;;;5396356;26;20731;-76
2024/04/18 13:56:21;;;;;;;2.33;1.00;;;;;;;;;;5392493;26;20004;-76
2024/04/18 13:59:04;;;;;;;3.63;1.13;;;;;;;;;;5388103;26;20004;-76
2024/04/18 14:01:30;;;;;;;4.03;1.08;;;;;;;;;;5394017;26;20473;-76
2024/04/18 14:04:00;;;;;;;2.85;1.20;;;;;;;;;;5391099;26;19997;-76
2024/04/18 14:06:37;;;;;;;2.45;1.40;;;;;;;;;;5397946;26;20019;-76
2024/04/18 14:09:10;;;;;;;4.10;1.45;;;;;;;;;;5388390;26;20078;-76
2024/04/18 14:11:41;;;;;;;1.92;1.10;;;;;;;;;;5383026;26;20004;-76
2024/04/18 14:14:26;;;;;;;3.40;1.10;;;;;;;;;;5383972;26;20012;-76
2024/04/18 14:20:00;;;;;;;2.47;0.70;;;;;;;;;;5393786;26;20032;-76
2024/04/18 14:22:25;;;;;;;2.67;0.77;;;;;;;;;;5389593;26;20003;-76
2024/04/18 14:24:51;;;;;;;2.17;0.93;;;;;;;;;;5382242;26;20004;-76
2024/04/18 14:27:30;;;;;;;4.43;0.75;;;;;;;;;;5380100;26;20082;-75
2024/04/18 14:29:58;;;;;;;2.67;0.80;;;;;;;;;;5390897;26;20438;-75
2024/04/18 14:32:32;;;;;;;2.58;0.95;;;;;;;;;;5394745;26;20005;-75
2024/04/18 14:35:01;;;;;;;2.78;1.00;;;;;;;;;;5396852;26;20022;-76
2024/04/18 14:37:28;;;;;;;2.13;0.88;;;;;;;;;;5406296;26;20000;-75
2024/04/18 14:39:53;;;;;;;2.67;1.02;;;;;;;;;;5412303;26;20064;-75
2024/04/18 14:42:18;;;;;;;4.65;1.10;;;;;;;;;;5411203;26;20002;-75
2024/04/18 14:44:44;;;;;;;2.40;1.00;;;;;;;;;;5407098;26;20032;-75
2024/04/18 14:47:13;;;;;;;3.35;1.02;;;;;;;;;;5408222;26;20344;-75
2024/04/18 14:49:54;;;;;;;3.17;0.82;;;;;;;;;;5404162;26;20000;-75
2024/04/18 14:52:32;;;;;;;4.40;0.82;;;;;;;;;;5401636;26;20004;-75
2024/04/18 14:54:57;;;;;;;1.65;0.70;;;;;;;;;;5401363;26;20004;-76
2024/04/18 14:57:31;;;;;;;2.13;0.82;;;;;;;;;;5407640;26;20007;-76
2024/04/18 15:00:15;;;;;;;2.28;0.80;;;;;;;;;;5406284;26;20000;-76